sensor_id;sensor_type;location;lat;lon;timestamp;P1;durP1;ratioP1;P2;durP2;ratioP2
21352;SDS011;10834;52.268;6.770;2024-02-23T00:00:47;0.10;;;0.10;;
21352;SDS011;10834;52.268;6.770;2024-02-23T00:03:31;2.50;;;0.20;;
21352;SDS011;10834;52.268;6.770;2024-02-23T00:06:17;0.20;;;0.20;;
21352;SDS011;10834;52.268;6.770;2024-02-23T00:09:02;0.97;;;0.20;;
21352;SDS011;10834;52.268;6.770;2024-02-23T00:11:46;0.67;;;0.10;;
21352;SDS011;10834;52.268;6.770;2024-02-23T00:14:33;0.10;;;0.10;;
21352;SDS011;10834;52.268;6.770;2024-02-23T00:17:19;1.07;;;0.10;;
21352;SDS011;10834;52.268;6.770;2024-02-23T00:20:04;0.20;;;0.10;;
21352;SDS011;10834;52.268;6.770;2024-02-23T00:22:48;0.10;;;0.10;;
21352;SDS011;10834;52.268;6.770;2024-02-23T00:25:33;0.30;;;0.30;;
21352;SDS011;10834;52.268;6.770;2024-02-23T00:28:17;0.23;;;0.20;;
21352;SDS011;10834;52.268;6.770;2024-02-23T00:31:01;0.37;;;0.20;;
21352;SDS011;10834;52.268;6.770;2024-02-23T00:33:45;0.17;;;0.17;;
21352;SDS011;10834;52.268;6.770;2024-02-23T00:36:29;0.37;;;0.37;;
21352;SDS011;10834;52.268;6.770;2024-02-23T00:39:13;0.20;;;0.20;;
21352;SDS011;10834;52.268;6.770;2024-02-23T00:41:57;0.43;;;0.43;;
21352;SDS011;10834;52.268;6.770;2024-02-23T00:44:42;1.17;;;0.37;;
21352;SDS011;10834;52.268;6.770;2024-02-23T00:47:26;0.40;;;0.40;;
21352;SDS011;10834;52.268;6.770;2024-02-23T00:50:11;0.43;;;0.43;;
21352;SDS011;10834;52.268;6.770;2024-02-23T00:52:56;2.13;;;0.60;;
21352;SDS011;10834;52.268;6.770;2024-02-23T00:55:40;0.77;;;0.60;;
21352;SDS011;10834;52.268;6.770;2024-02-23T00:58:24;0.70;;;0.60;;
21352;SDS011;10834;52.268;6.770;2024-02-23T01:01:09;0.90;;;0.73;;
21352;SDS011;10834;52.268;6.770;2024-02-23T01:03:53;0.50;;;0.50;;
21352;SDS011;10834;52.268;6.770;2024-02-23T01:06:37;0.70;;;0.70;;
21352;SDS011;10834;52.268;6.770;2024-02-23T01:09:21;2.00;;;0.73;;
21352;SDS011;10834;52.268;6.770;2024-02-23T01:12:05;2.57;;;0.60;;
21352;SDS011;10834;52.268;6.770;2024-02-23T01:14:49;3.63;;;0.90;;
21352;SDS011;10834;52.268;6.770;2024-02-23T01:17:34;2.57;;;0.90;;
21352;SDS011;10834;52.268;6.770;2024-02-23T01:20:18;1.13;;;0.87;;
21352;SDS011;10834;52.268;6.770;2024-02-23T01:23:02;2.33;;;1.00;;
21352;SDS011;10834;52.268;6.770;2024-02-23T01:25:46;3.77;;;0.90;;
21352;SDS011;10834;52.268;6.770;2024-02-23T01:28:30;2.07;;;1.43;;
21352;SDS011;10834;52.268;6.770;2024-02-23T01:31:14;1.93;;;1.10;;
21352;SDS011;10834;52.268;6.770;2024-02-23T01:33:58;3.20;;;1.00;;
21352;SDS011;10834;52.268;6.770;2024-02-23T01:36:42;9.10;;;1.27;;
21352;SDS011;10834;52.268;6.770;2024-02-23T01:39:27;3.43;;;1.67;;
21352;SDS011;10834;52.268;6.770;2024-02-23T01:42:10;1.20;;;1.10;;
21352;SDS011;10834;52.268;6.770;2024-02-23T01:44:54;4.63;;;1.50;;
21352;SDS011;10834;52.268;6.770;2024-02-23T01:47:42;6.37;;;2.00;;
21352;SDS011;10834;52.268;6.770;2024-02-23T01:50:26;4.77;;;1.77;;
21352;SDS011;10834;52.268;6.770;2024-02-23T01:53:11;2.30;;;1.50;;
21352;SDS011;10834;52.268;6.770;2024-02-23T01:55:56;2.27;;;0.90;;
21352;SDS011;10834;52.268;6.770;2024-02-23T01:58:43;1.70;;;0.80;;
21352;SDS011;10834;52.268;6.770;2024-02-23T02:01:30;5.67;;;0.73;;
21352;SDS011;10834;52.268;6.770;2024-02-23T02:04:15;3.07;;;0.83;;
21352;SDS011;10834;52.268;6.770;2024-02-23T02:07:00;4.17;;;0.43;;
21352;SDS011;10834;52.268;6.770;2024-02-23T02:09:44;4.13;;;0.70;;
21352;SDS011;10834;52.268;6.770;2024-02-23T02:12:28;6.67;;;0.73;;
21352;SDS011;10834;52.268;6.770;2024-02-23T02:15:13;1.83;;;0.80;;
21352;SDS011;10834;52.268;6.770;2024-02-23T02:17:57;2.60;;;1.00;;
21352;SDS011;10834;52.268;6.770;2024-02-23T02:20:48;4.23;;;1.33;;
21352;SDS011;10834;52.268;6.770;2024-02-23T02:23:35;2.87;;;1.00;;
21352;SDS011;10834;52.268;6.770;2024-02-23T02:26:20;4.63;;;1.40;;
21352;SDS011;10834;52.268;6.770;2024-02-23T02:29:04;2.63;;;1.73;;
21352;SDS011;10834;52.268;6.770;2024-02-23T02:31:49;8.17;;;3.57;;
21352;SDS011;10834;52.268;6.770;2024-02-23T02:34:33;4.67;;;2.50;;
21352;SDS011;10834;52.268;6.770;2024-02-23T02:37:17;6.90;;;3.83;;
21352;SDS011;10834;52.268;6.770;2024-02-23T02:40:02;7.17;;;3.80;;
21352;SDS011;10834;52.268;6.770;2024-02-23T02:42:47;6.67;;;4.40;;
21352;SDS011;10834;52.268;6.770;2024-02-23T02:45:31;12.67;;;4.17;;
21352;SDS011;10834;52.268;6.770;2024-02-23T02:48:15;6.43;;;4.60;;
21352;SDS011;10834;52.268;6.770;2024-02-23T02:50:59;5.70;;;4.20;;
21352;SDS011;10834;52.268;6.770;2024-02-23T02:53:43;7.07;;;4.70;;
21352;SDS011;10834;52.268;6.770;2024-02-23T02:56:27;7.47;;;4.37;;
21352;SDS011;10834;52.268;6.770;2024-02-23T02:59:12;8.43;;;4.03;;
21352;SDS011;10834;52.268;6.770;2024-02-23T03:01:57;8.70;;;4.00;;
21352;SDS011;10834;52.268;6.770;2024-02-23T03:04:50;4.03;;;3.10;;
21352;SDS011;10834;52.268;6.770;2024-02-23T03:07:34;5.87;;;3.20;;
21352;SDS011;10834;52.268;6.770;2024-02-23T03:10:18;4.17;;;2.70;;
21352;SDS011;10834;52.268;6.770;2024-02-23T03:13:02;7.50;;;2.40;;
21352;SDS011;10834;52.268;6.770;2024-02-23T03:15:47;7.13;;;2.60;;
21352;SDS011;10834;52.268;6.770;2024-02-23T03:18:31;12.30;;;2.40;;
21352;SDS011;10834;52.268;6.770;2024-02-23T03:21:15;3.57;;;1.93;;
21352;SDS011;10834;52.268;6.770;2024-02-23T03:23:59;4.73;;;2.03;;
21352;SDS011;10834;52.268;6.770;2024-02-23T03:26:43;3.00;;;1.73;;
21352;SDS011;10834;52.268;6.770;2024-02-23T03:29:27;1.73;;;1.23;;
21352;SDS011;10834;52.268;6.770;2024-02-23T03:32:15;9.03;;;1.63;;
21352;SDS011;10834;52.268;6.770;2024-02-23T03:34:59;2.23;;;1.10;;
21352;SDS011;10834;52.268;6.770;2024-02-23T03:37:43;5.70;;;1.60;;
21352;SDS011;10834;52.268;6.770;2024-02-23T03:40:28;3.13;;;1.37;;
21352;SDS011;10834;52.268;6.770;2024-02-23T03:43:12;4.63;;;1.73;;
21352;SDS011;10834;52.268;6.770;2024-02-23T03:45:56;5.37;;;1.40;;
21352;SDS011;10834;52.268;6.770;2024-02-23T03:48:40;3.80;;;1.03;;
21352;SDS011;10834;52.268;6.770;2024-02-23T03:51:24;3.00;;;1.00;;
21352;SDS011;10834;52.268;6.770;2024-02-23T03:54:08;3.87;;;1.80;;
21352;SDS011;10834;52.268;6.770;2024-02-23T03:56:53;1.87;;;1.00;;
21352;SDS011;10834;52.268;6.770;2024-02-23T03:59:37;5.70;;;1.73;;
21352;SDS011;10834;52.268;6.770;2024-02-23T04:02:21;4.17;;;1.70;;
21352;SDS011;10834;52.268;6.770;2024-02-23T04:05:06;6.07;;;1.53;;
21352;SDS011;10834;52.268;6.770;2024-02-23T04:07:51;5.30;;;1.80;;
21352;SDS011;10834;52.268;6.770;2024-02-23T04:10:34;5.27;;;1.60;;
21352;SDS011;10834;52.268;6.770;2024-02-23T04:13:19;5.77;;;1.93;;
21352;SDS011;10834;52.268;6.770;2024-02-23T04:16:04;2.20;;;1.23;;
21352;SDS011;10834;52.268;6.770;2024-02-23T04:18:48;4.83;;;1.33;;
21352;SDS011;10834;52.268;6.770;2024-02-23T04:21:32;3.10;;;0.93;;
21352;SDS011;10834;52.268;6.770;2024-02-23T04:24:16;1.33;;;0.87;;
21352;SDS011;10834;52.268;6.770;2024-02-23T04:27:00;5.07;;;1.00;;
21352;SDS011;10834;52.268;6.770;2024-02-23T04:29:45;5.27;;;1.37;;
21352;SDS011;10834;52.268;6.770;2024-02-23T04:32:29;3.50;;;1.00;;
21352;SDS011;10834;52.268;6.770;2024-02-23T04:35:14;5.27;;;1.07;;
21352;SDS011;10834;52.268;6.770;2024-02-23T04:37:59;1.93;;;1.00;;
21352;SDS011;10834;52.268;6.770;2024-02-23T04:40:43;2.57;;;1.27;;
21352;SDS011;10834;52.268;6.770;2024-02-23T04:43:27;4.67;;;1.47;;
21352;SDS011;10834;52.268;6.770;2024-02-23T04:46:11;5.30;;;1.20;;
21352;SDS011;10834;52.268;6.770;2024-02-23T04:48:56;3.53;;;1.17;;
21352;SDS011;10834;52.268;6.770;2024-02-23T04:51:40;7.53;;;2.37;;
21352;SDS011;10834;52.268;6.770;2024-02-23T04:54:25;4.87;;;1.10;;
21352;SDS011;10834;52.268;6.770;2024-02-23T04:57:09;5.70;;;1.00;;
21352;SDS011;10834;52.268;6.770;2024-02-23T04:59:53;3.63;;;1.20;;
21352;SDS011;10834;52.268;6.770;2024-02-23T05:02:37;2.63;;;1.10;;
21352;SDS011;10834;52.268;6.770;2024-02-23T05:05:21;3.07;;;1.23;;
21352;SDS011;10834;52.268;6.770;2024-02-23T05:08:05;10.10;;;1.90;;
21352;SDS011;10834;52.268;6.770;2024-02-23T05:10:50;5.73;;;0.90;;
21352;SDS011;10834;52.268;6.770;2024-02-23T05:13:34;2.87;;;0.97;;
21352;SDS011;10834;52.268;6.770;2024-02-23T05:16:19;5.07;;;1.37;;
21352;SDS011;10834;52.268;6.770;2024-02-23T05:19:03;10.07;;;2.77;;
21352;SDS011;10834;52.268;6.770;2024-02-23T05:21:47;1.70;;;1.10;;
21352;SDS011;10834;52.268;6.770;2024-02-23T05:24:31;5.60;;;1.40;;
21352;SDS011;10834;52.268;6.770;2024-02-23T05:27:15;2.63;;;1.37;;
21352;SDS011;10834;52.268;6.770;2024-02-23T05:29:59;8.10;;;1.50;;
21352;SDS011;10834;52.268;6.770;2024-02-23T05:32:44;5.77;;;1.20;;
21352;SDS011;10834;52.268;6.770;2024-02-23T05:35:28;6.63;;;1.60;;
21352;SDS011;10834;52.268;6.770;2024-02-23T05:38:13;5.37;;;1.53;;
21352;SDS011;10834;52.268;6.770;2024-02-23T05:40:57;6.53;;;2.27;;
21352;SDS011;10834;52.268;6.770;2024-02-23T05:43:41;3.77;;;1.50;;
21352;SDS011;10834;52.268;6.770;2024-02-23T05:46:25;6.67;;;1.40;;
21352;SDS011;10834;52.268;6.770;2024-02-23T05:49:09;6.13;;;1.70;;
21352;SDS011;10834;52.268;6.770;2024-02-23T05:51:53;7.30;;;1.50;;
21352;SDS011;10834;52.268;6.770;2024-02-23T05:54:38;6.70;;;2.27;;
21352;SDS011;10834;52.268;6.770;2024-02-23T05:57:23;6.60;;;1.63;;
21352;SDS011;10834;52.268;6.770;2024-02-23T06:00:07;5.23;;;1.43;;
21352;SDS011;10834;52.268;6.770;2024-02-23T06:02:52;7.37;;;1.60;;
21352;SDS011;10834;52.268;6.770;2024-02-23T06:05:36;4.93;;;1.83;;
21352;SDS011;10834;52.268;6.770;2024-02-23T06:08:20;7.33;;;1.80;;
21352;SDS011;10834;52.268;6.770;2024-02-23T06:11:04;7.27;;;1.60;;
21352;SDS011;10834;52.268;6.770;2024-02-23T06:13:48;2.00;;;1.20;;
21352;SDS011;10834;52.268;6.770;2024-02-23T06:16:32;4.33;;;2.00;;
21352;SDS011;10834;52.268;6.770;2024-02-23T06:19:17;3.40;;;1.40;;
21352;SDS011;10834;52.268;6.770;2024-02-23T06:22:01;2.27;;;1.60;;
21352;SDS011;10834;52.268;6.770;2024-02-23T06:24:46;2.77;;;1.13;;
21352;SDS011;10834;52.268;6.770;2024-02-23T06:27:33;6.70;;;1.80;;
21352;SDS011;10834;52.268;6.770;2024-02-23T06:30:17;4.67;;;1.57;;
21352;SDS011;10834;52.268;6.770;2024-02-23T06:33:01;3.93;;;1.40;;
21352;SDS011;10834;52.268;6.770;2024-02-23T06:35:45;6.83;;;1.30;;
21352;SDS011;10834;52.268;6.770;2024-02-23T06:38:29;4.67;;;1.53;;
21352;SDS011;10834;52.268;6.770;2024-02-23T06:41:14;9.83;;;1.40;;
21352;SDS011;10834;52.268;6.770;2024-02-23T06:43:58;3.33;;;1.07;;
21352;SDS011;10834;52.268;6.770;2024-02-23T06:46:43;7.00;;;1.57;;
21352;SDS011;10834;52.268;6.770;2024-02-23T06:49:27;8.03;;;1.07;;
21352;SDS011;10834;52.268;6.770;2024-02-23T06:52:11;4.33;;;1.20;;
21352;SDS011;10834;52.268;6.770;2024-02-23T06:54:55;3.93;;;0.97;;
21352;SDS011;10834;52.268;6.770;2024-02-23T06:57:40;3.43;;;1.00;;
21352;SDS011;10834;52.268;6.770;2024-02-23T07:00:24;4.43;;;0.97;;
21352;SDS011;10834;52.268;6.770;2024-02-23T07:03:08;4.07;;;1.27;;
21352;SDS011;10834;52.268;6.770;2024-02-23T07:05:52;7.43;;;1.10;;
21352;SDS011;10834;52.268;6.770;2024-02-23T07:08:36;5.50;;;0.80;;
21352;SDS011;10834;52.268;6.770;2024-02-23T07:11:21;5.33;;;0.87;;
21352;SDS011;10834;52.268;6.770;2024-02-23T07:14:05;9.40;;;1.80;;
21352;SDS011;10834;52.268;6.770;2024-02-23T07:16:49;2.63;;;0.93;;
21352;SDS011;10834;52.268;6.770;2024-02-23T07:19:35;2.93;;;1.00;;
21352;SDS011;10834;52.268;6.770;2024-02-23T07:22:19;1.53;;;0.90;;
21352;SDS011;10834;52.268;6.770;2024-02-23T07:25:04;6.87;;;1.33;;
21352;SDS011;10834;52.268;6.770;2024-02-23T07:27:49;1.90;;;0.93;;
21352;SDS011;10834;52.268;6.770;2024-02-23T07:30:33;5.22;;;1.77;;
21352;SDS011;10834;52.268;6.770;2024-02-23T07:33:20;8.02;;;1.70;;
21352;SDS011;10834;52.268;6.770;2024-02-23T07:36:05;5.23;;;1.17;;
21352;SDS011;10834;52.268;6.770;2024-02-23T07:38:49;4.83;;;1.13;;
21352;SDS011;10834;52.268;6.770;2024-02-23T07:41:33;4.50;;;0.97;;
21352;SDS011;10834;52.268;6.770;2024-02-23T07:44:17;2.63;;;1.30;;
21352;SDS011;10834;52.268;6.770;2024-02-23T07:47:01;3.97;;;0.90;;
21352;SDS011;10834;52.268;6.770;2024-02-23T07:49:46;7.50;;;2.20;;
21352;SDS011;10834;52.268;6.770;2024-02-23T07:52:30;5.17;;;1.17;;
21352;SDS011;10834;52.268;6.770;2024-02-23T07:55:14;4.77;;;2.47;;
21352;SDS011;10834;52.268;6.770;2024-02-23T07:57:59;3.47;;;0.97;;
21352;SDS011;10834;52.268;6.770;2024-02-23T08:00:44;7.70;;;1.10;;
21352;SDS011;10834;52.268;6.770;2024-02-23T08:03:30;10.03;;;1.40;;
21352;SDS011;10834;52.268;6.770;2024-02-23T08:06:15;4.07;;;0.80;;
21352;SDS011;10834;52.268;6.770;2024-02-23T08:08:59;2.53;;;0.70;;
21352;SDS011;10834;52.268;6.770;2024-02-23T08:11:43;6.70;;;1.30;;
21352;SDS011;10834;52.268;6.770;2024-02-23T08:14:27;2.40;;;0.80;;
21352;SDS011;10834;52.268;6.770;2024-02-23T08:17:12;4.70;;;2.63;;
21352;SDS011;10834;52.268;6.770;2024-02-23T08:19:56;7.73;;;1.37;;
21352;SDS011;10834;52.268;6.770;2024-02-23T08:22:40;4.40;;;0.90;;
21352;SDS011;10834;52.268;6.770;2024-02-23T08:25:24;5.70;;;0.70;;
21352;SDS011;10834;52.268;6.770;2024-02-23T08:28:08;3.23;;;0.73;;
21352;SDS011;10834;52.268;6.770;2024-02-23T08:30:52;7.87;;;1.13;;
21352;SDS011;10834;52.268;6.770;2024-02-23T08:33:36;5.97;;;1.20;;
21352;SDS011;10834;52.268;6.770;2024-02-23T08:36:21;5.17;;;0.97;;
21352;SDS011;10834;52.268;6.770;2024-02-23T08:39:05;3.40;;;1.00;;
21352;SDS011;10834;52.268;6.770;2024-02-23T08:41:49;2.60;;;0.97;;
21352;SDS011;10834;52.268;6.770;2024-02-23T08:44:35;5.90;;;0.80;;
21352;SDS011;10834;52.268;6.770;2024-02-23T08:47:20;4.80;;;0.93;;
21352;SDS011;10834;52.268;6.770;2024-02-23T08:50:04;8.50;;;1.63;;
21352;SDS011;10834;52.268;6.770;2024-02-23T08:52:49;4.33;;;0.80;;
21352;SDS011;10834;52.268;6.770;2024-02-23T08:55:33;5.20;;;0.83;;
21352;SDS011;10834;52.268;6.770;2024-02-23T08:58:18;4.97;;;1.10;;
21352;SDS011;10834;52.268;6.770;2024-02-23T09:01:02;4.53;;;1.07;;
21352;SDS011;10834;52.268;6.770;2024-02-23T09:03:48;3.60;;;0.87;;
21352;SDS011;10834;52.268;6.770;2024-02-23T09:06:32;4.97;;;0.90;;
21352;SDS011;10834;52.268;6.770;2024-02-23T09:09:16;8.60;;;0.80;;
21352;SDS011;10834;52.268;6.770;2024-02-23T09:12:00;3.53;;;0.70;;
21352;SDS011;10834;52.268;6.770;2024-02-23T09:14:45;4.20;;;0.60;;
21352;SDS011;10834;52.268;6.770;2024-02-23T09:17:29;6.17;;;0.80;;
21352;SDS011;10834;52.268;6.770;2024-02-23T09:20:13;3.17;;;0.90;;
21352;SDS011;10834;52.268;6.770;2024-02-23T09:22:57;2.63;;;0.90;;
21352;SDS011;10834;52.268;6.770;2024-02-23T09:25:42;4.53;;;1.07;;
21352;SDS011;10834;52.268;6.770;2024-02-23T09:28:29;6.40;;;0.60;;
21352;SDS011;10834;52.268;6.770;2024-02-23T09:31:14;3.20;;;0.90;;
21352;SDS011;10834;52.268;6.770;2024-02-23T09:33:58;4.23;;;1.47;;
21352;SDS011;10834;52.268;6.770;2024-02-23T09:36:43;2.60;;;1.40;;
21352;SDS011;10834;52.268;6.770;2024-02-23T09:39:27;3.87;;;1.00;;
21352;SDS011;10834;52.268;6.770;2024-02-23T09:42:13;3.87;;;0.90;;
21352;SDS011;10834;52.268;6.770;2024-02-23T09:44:58;7.40;;;1.13;;
21352;SDS011;10834;52.268;6.770;2024-02-23T09:47:44;3.63;;;0.80;;
21352;SDS011;10834;52.268;6.770;2024-02-23T09:50:28;2.73;;;1.10;;
21352;SDS011;10834;52.268;6.770;2024-02-23T09:53:13;2.67;;;0.60;;
21352;SDS011;10834;52.268;6.770;2024-02-23T09:55:59;3.63;;;0.97;;
21352;SDS011;10834;52.268;6.770;2024-02-23T09:58:44;4.10;;;1.20;;
21352;SDS011;10834;52.268;6.770;2024-02-23T10:01:31;2.83;;;1.23;;
21352;SDS011;10834;52.268;6.770;2024-02-23T10:04:16;3.63;;;0.80;;
21352;SDS011;10834;52.268;6.770;2024-02-23T10:07:02;5.23;;;1.10;;
21352;SDS011;10834;52.268;6.770;2024-02-23T10:09:48;3.80;;;0.80;;
21352;SDS011;10834;52.268;6.770;2024-02-23T10:12:33;4.80;;;0.90;;
21352;SDS011;10834;52.268;6.770;2024-02-23T10:15:18;2.97;;;0.67;;
21352;SDS011;10834;52.268;6.770;2024-02-23T10:18:02;5.77;;;0.70;;
21352;SDS011;10834;52.268;6.770;2024-02-23T10:20:47;4.93;;;1.00;;
21352;SDS011;10834;52.268;6.770;2024-02-23T10:23:31;8.80;;;0.80;;
21352;SDS011;10834;52.268;6.770;2024-02-23T10:26:15;3.47;;;0.97;;
21352;SDS011;10834;52.268;6.770;2024-02-23T10:29:02;2.93;;;0.87;;
21352;SDS011;10834;52.268;6.770;2024-02-23T10:31:47;4.03;;;1.30;;
21352;SDS011;10834;52.268;6.770;2024-02-23T10:34:33;4.43;;;1.23;;
21352;SDS011;10834;52.268;6.770;2024-02-23T10:37:21;4.90;;;1.27;;
21352;SDS011;10834;52.268;6.770;2024-02-23T10:40:07;6.10;;;0.90;;
21352;SDS011;10834;52.268;6.770;2024-02-23T10:42:55;5.07;;;0.80;;
21352;SDS011;10834;52.268;6.770;2024-02-23T10:45:43;1.30;;;0.40;;
21352;SDS011;10834;52.268;6.770;2024-02-23T10:48:28;6.20;;;1.00;;
21352;SDS011;10834;52.268;6.770;2024-02-23T10:51:13;2.80;;;0.80;;
21352;SDS011;10834;52.268;6.770;2024-02-23T10:53:58;1.57;;;0.57;;
21352;SDS011;10834;52.268;6.770;2024-02-23T10:56:44;2.93;;;0.83;;
21352;SDS011;10834;52.268;6.770;2024-02-23T10:59:30;3.63;;;0.70;;
21352;SDS011;10834;52.268;6.770;2024-02-23T11:02:16;3.57;;;0.73;;
21352;SDS011;10834;52.268;6.770;2024-02-23T11:05:04;5.70;;;0.70;;
21352;SDS011;10834;52.268;6.770;2024-02-23T11:07:55;4.47;;;0.83;;
21352;SDS011;10834;52.268;6.770;2024-02-23T11:10:48;3.10;;;0.70;;
21352;SDS011;10834;52.268;6.770;2024-02-23T11:13:38;4.13;;;0.90;;
21352;SDS011;10834;52.268;6.770;2024-02-23T11:16:23;3.97;;;0.50;;
21352;SDS011;10834;52.268;6.770;2024-02-23T11:19:09;1.07;;;0.50;;
21352;SDS011;10834;52.268;6.770;2024-02-23T11:21:54;4.37;;;1.10;;
21352;SDS011;10834;52.268;6.770;2024-02-23T11:24:43;5.43;;;1.20;;
21352;SDS011;10834;52.268;6.770;2024-02-23T11:27:31;1.23;;;0.60;;
21352;SDS011;10834;52.268;6.770;2024-02-23T11:30:17;3.17;;;0.77;;
21352;SDS011;10834;52.268;6.770;2024-02-23T11:33:02;4.30;;;1.00;;
21352;SDS011;10834;52.268;6.770;2024-02-23T11:35:46;4.50;;;1.00;;
21352;SDS011;10834;52.268;6.770;2024-02-23T11:38:33;3.40;;;1.67;;
21352;SDS011;10834;52.268;6.770;2024-02-23T11:41:18;3.90;;;0.83;;
21352;SDS011;10834;52.268;6.770;2024-02-23T11:44:04;5.73;;;1.10;;
21352;SDS011;10834;52.268;6.770;2024-02-23T11:46:50;7.93;;;0.70;;
21352;SDS011;10834;52.268;6.770;2024-02-23T11:49:35;5.43;;;0.73;;
21352;SDS011;10834;52.268;6.770;2024-02-23T11:52:19;3.33;;;0.63;;
21352;SDS011;10834;52.268;6.770;2024-02-23T11:55:04;4.63;;;0.70;;
21352;SDS011;10834;52.268;6.770;2024-02-23T11:57:49;7.23;;;1.07;;
21352;SDS011;10834;52.268;6.770;2024-02-23T12:00:34;2.27;;;0.70;;
21352;SDS011;10834;52.268;6.770;2024-02-23T12:03:19;3.97;;;0.73;;
21352;SDS011;10834;52.268;6.770;2024-02-23T12:06:04;2.33;;;0.50;;
21352;SDS011;10834;52.268;6.770;2024-02-23T12:08:49;4.07;;;0.90;;
21352;SDS011;10834;52.268;6.770;2024-02-23T12:11:34;4.10;;;0.70;;
21352;SDS011;10834;52.268;6.770;2024-02-23T12:14:18;5.33;;;0.77;;
21352;SDS011;10834;52.268;6.770;2024-02-23T12:17:02;4.67;;;0.93;;
21352;SDS011;10834;52.268;6.770;2024-02-23T12:19:50;9.00;;;1.23;;
21352;SDS011;10834;52.268;6.770;2024-02-23T12:22:41;1.67;;;0.60;;
21352;SDS011;10834;52.268;6.770;2024-02-23T12:25:25;5.87;;;0.70;;
21352;SDS011;10834;52.268;6.770;2024-02-23T12:28:10;3.80;;;0.67;;
21352;SDS011;10834;52.268;6.770;2024-02-23T12:31:00;5.00;;;0.80;;
21352;SDS011;10834;52.268;6.770;2024-02-23T12:33:45;7.73;;;1.00;;
21352;SDS011;10834;52.268;6.770;2024-02-23T12:36:31;4.97;;;1.10;;
21352;SDS011;10834;52.268;6.770;2024-02-23T12:39:18;3.70;;;0.83;;
21352;SDS011;10834;52.268;6.770;2024-02-23T12:42:02;2.83;;;0.70;;
21352;SDS011;10834;52.268;6.770;2024-02-23T12:44:47;3.23;;;0.60;;
21352;SDS011;10834;52.268;6.770;2024-02-23T12:47:31;4.33;;;1.23;;
21352;SDS011;10834;52.268;6.770;2024-02-23T12:50:15;4.30;;;0.87;;
21352;SDS011;10834;52.268;6.770;2024-02-23T12:52:59;3.00;;;1.40;;
21352;SDS011;10834;52.268;6.770;2024-02-23T12:55:44;1.27;;;0.83;;
21352;SDS011;10834;52.268;6.770;2024-02-23T12:58:29;3.37;;;0.90;;
21352;SDS011;10834;52.268;6.770;2024-02-23T13:01:13;4.97;;;1.37;;
21352;SDS011;10834;52.268;6.770;2024-02-23T13:03:58;7.47;;;1.40;;
21352;SDS011;10834;52.268;6.770;2024-02-23T13:06:42;4.50;;;1.17;;
21352;SDS011;10834;52.268;6.770;2024-02-23T13:09:26;5.93;;;1.47;;
21352;SDS011;10834;52.268;6.770;2024-02-23T13:12:10;5.20;;;1.17;;
21352;SDS011;10834;52.268;6.770;2024-02-23T13:14:55;4.23;;;1.03;;
21352;SDS011;10834;52.268;6.770;2024-02-23T13:17:39;6.80;;;0.90;;
21352;SDS011;10834;52.268;6.770;2024-02-23T13:20:23;1.20;;;0.90;;
21352;SDS011;10834;52.268;6.770;2024-02-23T13:23:08;3.33;;;2.00;;
21352;SDS011;10834;52.268;6.770;2024-02-23T13:25:53;6.07;;;1.50;;
21352;SDS011;10834;52.268;6.770;2024-02-23T13:28:37;10.70;;;1.27;;
21352;SDS011;10834;52.268;6.770;2024-02-23T13:31:21;3.27;;;1.20;;
21352;SDS011;10834;52.268;6.770;2024-02-23T13:34:05;4.70;;;1.13;;
21352;SDS011;10834;52.268;6.770;2024-02-23T13:36:50;3.97;;;1.20;;
21352;SDS011;10834;52.268;6.770;2024-02-23T13:39:36;4.53;;;0.90;;
21352;SDS011;10834;52.268;6.770;2024-02-23T13:42:20;2.13;;;0.97;;
21352;SDS011;10834;52.268;6.770;2024-02-23T13:45:05;3.67;;;1.27;;
21352;SDS011;10834;52.268;6.770;2024-02-23T13:48:02;3.37;;;0.83;;
21352;SDS011;10834;52.268;6.770;2024-02-23T13:50:49;4.20;;;1.07;;
21352;SDS011;10834;52.268;6.770;2024-02-23T13:53:33;1.47;;;0.80;;
21352;SDS011;10834;52.268;6.770;2024-02-23T13:56:19;2.63;;;0.50;;
21352;SDS011;10834;52.268;6.770;2024-02-23T13:59:04;5.30;;;0.97;;
21352;SDS011;10834;52.268;6.770;2024-02-23T14:01:48;4.00;;;1.27;;
21352;SDS011;10834;52.268;6.770;2024-02-23T14:04:32;3.67;;;1.00;;
21352;SDS011;10834;52.268;6.770;2024-02-23T14:07:16;2.57;;;1.27;;
21352;SDS011;10834;52.268;6.770;2024-02-23T14:10:02;2.43;;;1.07;;
21352;SDS011;10834;52.268;6.770;2024-02-23T14:12:46;5.33;;;1.10;;
21352;SDS011;10834;52.268;6.770;2024-02-23T14:15:33;1.10;;;0.73;;
21352;SDS011;10834;52.268;6.770;2024-02-23T14:18:17;5.77;;;1.27;;
21352;SDS011;10834;52.268;6.770;2024-02-23T14:21:01;3.17;;;0.90;;
21352;SDS011;10834;52.268;6.770;2024-02-23T14:23:47;1.90;;;0.60;;
21352;SDS011;10834;52.268;6.770;2024-02-23T14:26:31;1.97;;;1.43;;
21352;SDS011;10834;52.268;6.770;2024-02-23T14:29:16;6.10;;;1.27;;
21352;SDS011;10834;52.268;6.770;2024-02-23T14:32:01;3.40;;;0.70;;
21352;SDS011;10834;52.268;6.770;2024-02-23T14:34:46;4.47;;;0.73;;
21352;SDS011;10834;52.268;6.770;2024-02-23T14:37:31;2.60;;;0.97;;
21352;SDS011;10834;52.268;6.770;2024-02-23T14:40:15;7.23;;;1.30;;
21352;SDS011;10834;52.268;6.770;2024-02-23T14:42:59;1.00;;;0.87;;
21352;SDS011;10834;52.268;6.770;2024-02-23T14:45:43;5.90;;;1.50;;
21352;SDS011;10834;52.268;6.770;2024-02-23T14:48:27;2.00;;;1.00;;
21352;SDS011;10834;52.268;6.770;2024-02-23T14:51:11;3.13;;;0.80;;
21352;SDS011;10834;52.268;6.770;2024-02-23T14:53:55;1.73;;;1.17;;
21352;SDS011;10834;52.268;6.770;2024-02-23T14:56:39;8.13;;;1.10;;
21352;SDS011;10834;52.268;6.770;2024-02-23T14:59:24;2.53;;;0.83;;
21352;SDS011;10834;52.268;6.770;2024-02-23T15:02:08;2.37;;;0.73;;
21352;SDS011;10834;52.268;6.770;2024-02-23T15:04:55;3.43;;;1.10;;
21352;SDS011;10834;52.268;6.770;2024-02-23T15:07:39;3.57;;;0.87;;
21352;SDS011;10834;52.268;6.770;2024-02-23T15:10:23;3.47;;;0.90;;
21352;SDS011;10834;52.268;6.770;2024-02-23T15:13:07;5.30;;;1.50;;
21352;SDS011;10834;52.268;6.770;2024-02-23T15:15:52;5.20;;;1.53;;
21352;SDS011;10834;52.268;6.770;2024-02-23T15:18:38;4.13;;;1.07;;
21352;SDS011;10834;52.268;6.770;2024-02-23T15:21:22;3.23;;;1.10;;
21352;SDS011;10834;52.268;6.770;2024-02-23T15:24:06;6.63;;;1.00;;
21352;SDS011;10834;52.268;6.770;2024-02-23T15:26:50;2.97;;;0.67;;
21352;SDS011;10834;52.268;6.770;2024-02-23T15:29:35;3.00;;;0.90;;
21352;SDS011;10834;52.268;6.770;2024-02-23T15:32:19;2.80;;;1.17;;
21352;SDS011;10834;52.268;6.770;2024-02-23T15:35:03;3.73;;;0.70;;
21352;SDS011;10834;52.268;6.770;2024-02-23T15:37:48;1.90;;;1.03;;
21352;SDS011;10834;52.268;6.770;2024-02-23T15:40:32;1.20;;;0.70;;
21352;SDS011;10834;52.268;6.770;2024-02-23T15:43:16;3.77;;;0.73;;
21352;SDS011;10834;52.268;6.770;2024-02-23T15:46:00;3.03;;;0.83;;
21352;SDS011;10834;52.268;6.770;2024-02-23T15:48:44;4.83;;;1.67;;
21352;SDS011;10834;52.268;6.770;2024-02-23T15:51:29;1.37;;;0.80;;
21352;SDS011;10834;52.268;6.770;2024-02-23T15:54:17;3.03;;;1.77;;
21352;SDS011;10834;52.268;6.770;2024-02-23T15:57:01;1.67;;;0.93;;
21352;SDS011;10834;52.268;6.770;2024-02-23T15:59:46;2.60;;;0.97;;
21352;SDS011;10834;52.268;6.770;2024-02-23T16:02:30;2.23;;;1.57;;
21352;SDS011;10834;52.268;6.770;2024-02-23T16:05:15;2.70;;;1.10;;
21352;SDS011;10834;52.268;6.770;2024-02-23T16:07:59;4.00;;;0.97;;
21352;SDS011;10834;52.268;6.770;2024-02-23T16:10:46;5.80;;;1.37;;
21352;SDS011;10834;52.268;6.770;2024-02-23T16:13:35;2.93;;;1.27;;
21352;SDS011;10834;52.268;6.770;2024-02-23T16:16:20;3.87;;;1.00;;
21352;SDS011;10834;52.268;6.770;2024-02-23T16:19:04;4.33;;;1.30;;
21352;SDS011;10834;52.268;6.770;2024-02-23T16:21:48;8.13;;;2.43;;
21352;SDS011;10834;52.268;6.770;2024-02-23T16:24:32;4.17;;;1.50;;
21352;SDS011;10834;52.268;6.770;2024-02-23T16:27:17;4.77;;;1.10;;
21352;SDS011;10834;52.268;6.770;2024-02-23T16:30:01;2.57;;;1.13;;
21352;SDS011;10834;52.268;6.770;2024-02-23T16:32:46;6.30;;;0.93;;